createdAt,value
2019-04-23T00:04:37.101Z,23.89
2019-04-23T00:09:47.002Z,23.80
2019-04-23T00:15:04.888Z,23.75
2019-04-23T00:20:05.748Z,23.66
2019-04-23T00:25:28.975Z,23.55
2019-04-23T00:30:11.519Z,23.22
2019-04-23T00:35:23.675Z,22.94
2019-04-23T00:40:25.966Z,22.80
2019-04-23T00:45:34.634Z,22.68
2019-04-23T00:55:43.069Z,22.44
2019-04-23T01:00:47.465Z,22.39
2019-04-23T01:05:46.649Z,22.25
2019-04-23T01:11:01.865Z,22.00
2019-04-23T01:16:05.686Z,22.02
2019-04-23T01:20:54.399Z,22.08
2019-04-23T01:26:16.584Z,21.96
2019-04-23T01:31:29.011Z,21.91
2019-04-23T01:36:34.695Z,21.95
2019-04-23T01:41:41.175Z,21.81
2019-04-23T01:46:49.276Z,21.80
2019-04-23T01:51:54.912Z,21.77
2019-04-23T01:56:55.005Z,21.74
2019-04-23T02:02:05.431Z,21.63
2019-04-23T02:07:06.544Z,21.61
2019-04-23T02:12:11.492Z,21.56
2019-04-23T02:17:25.467Z,21.55
2019-04-23T02:23:04.862Z,21.64
2019-04-23T02:27:54.392Z,22.05
2019-04-23T02:33:10.987Z,22.65
2019-04-23T02:38:13.503Z,23.28
2019-04-23T02:43:12.671Z,23.56
2019-04-23T02:53:39.574Z,23.68
2019-04-23T02:58:46.015Z,23.54
2019-04-23T03:04:17.467Z,23.35
2019-04-23T03:08:39.959Z,23.25
2019-04-23T03:24:25.140Z,23.02
2019-04-23T03:39:40.105Z,22.33
2019-04-23T03:44:39.804Z,22.21
2019-04-23T03:54:45.545Z,22.03
2019-04-23T03:59:55.107Z,21.93
2019-04-23T04:04:57.950Z,21.98
2019-04-23T04:20:19.612Z,22.27
2019-04-23T04:25:26.005Z,20.82
2019-04-23T04:30:27.355Z,20.40
2019-04-23T04:35:23.083Z,20.03
2019-04-23T04:40:39.164Z,19.65
2019-04-23T04:55:54.833Z,19.31
2019-04-23T05:26:25.087Z,19.89
2019-04-23T05:36:30.785Z,20.90
2019-04-23T05:41:36.855Z,21.05
2019-04-23T05:46:52.342Z,21.56
2019-04-23T05:51:50.968Z,22.02
2019-04-23T05:57:04.683Z,21.87
2019-04-23T06:12:06.077Z,22.58
2019-04-23T06:27:28.973Z,22.05
2019-04-23T06:32:29.428Z,22.05
2019-04-23T06:42:37.633Z,22.90
2019-04-23T06:47:43.050Z,22.26
2019-04-23T06:52:48.527Z,21.93
2019-04-23T06:57:58.764Z,21.39
2019-04-23T07:03:00.903Z,21.60
2019-04-23T07:08:05.899Z,22.37
2019-04-23T07:13:10.938Z,22.59
2019-04-23T07:18:16.295Z,22.48
2019-04-23T07:23:35.691Z,22.80
2019-04-23T07:28:32.549Z,22.13
2019-04-23T07:33:35.098Z,21.79
2019-04-23T07:39:01.595Z,21.89
2019-04-23T07:44:06.280Z,21.56
2019-04-23T07:49:02.912Z,21.28
2019-04-23T07:54:19.362Z,21.46
2019-04-23T07:59:22.753Z,21.03
2019-04-23T08:04:30.197Z,21.42
2019-04-23T08:09:33.854Z,21.54
2019-04-23T08:14:32.685Z,21.23
2019-04-23T08:19:49.853Z,21.56
2019-04-23T08:24:51.052Z,21.64
2019-04-23T08:29:43.948Z,22.00
2019-04-23T08:34:58.619Z,22.08
2019-04-23T08:40:04.297Z,22.22
2019-04-23T08:45:31.385Z,21.95
2019-04-23T08:50:29.701Z,21.90
2019-04-23T08:55:38.757Z,21.62
2019-04-23T09:00:49.885Z,21.63
2019-04-23T09:10:58.073Z,21.60
2019-04-23T09:15:56.199Z,21.38
2019-04-23T09:21:05.846Z,21.27
2019-04-23T09:26:02.398Z,21.24
2019-04-23T09:31:42.016Z,21.23
2019-04-23T09:36:40.613Z,21.17
2019-04-23T09:42:04.793Z,21.27
2019-04-23T09:47:14.012Z,21.53
2019-04-23T09:57:17.156Z,21.77
2019-04-23T10:02:20.167Z,21.80
2019-04-23T10:07:17.957Z,21.31
2019-04-23T10:12:11.539Z,21.20
2019-04-23T10:17:16.076Z,21.11
2019-04-23T10:22:19.977Z,21.09
2019-04-23T10:27:25.153Z,21.06
2019-04-23T10:32:29.814Z,21.10
2019-04-23T10:37:46.097Z,21.08
2019-04-23T10:42:43.243Z,20.89
2019-04-23T10:53:30.003Z,21.01
2019-04-23T10:58:36.482Z,21.43
2019-04-23T11:04:00.428Z,21.59
2019-04-23T11:08:44.018Z,21.65
2019-04-23T11:14:04.911Z,21.75
2019-04-23T11:19:10.566Z,21.71
2019-04-23T11:24:20.772Z,21.80
2019-04-23T11:29:23.109Z,21.88
2019-04-23T11:34:34.181Z,21.92
2019-04-23T11:39:32.646Z,21.93
2019-04-23T11:44:36.770Z,21.96
2019-04-23T11:54:43.562Z,21.57
2019-04-23T12:00:02.094Z,21.31
2019-04-23T12:15:25.269Z,21.37
2019-04-23T12:20:26.839Z,21.59
2019-04-23T12:30:39.427Z,21.76
2019-04-23T12:35:35.512Z,21.79
2019-04-23T12:40:43.195Z,21.81
2019-04-23T12:46:02.127Z,21.83
2019-04-23T12:56:06.864Z,21.88
2019-04-23T13:01:05.254Z,21.93
2019-04-23T13:06:08.081Z,21.75
2019-04-23T13:11:21.534Z,21.86
2019-04-23T13:16:25.374Z,21.85
2019-04-23T13:26:30.894Z,21.88
2019-04-23T13:31:34.642Z,21.87
2019-04-23T13:36:46.895Z,21.89
2019-04-23T13:41:48.256Z,21.86
2019-04-23T13:47:02.931Z,21.86
2019-04-23T13:52:12.788Z,21.87
2019-04-23T13:57:34.775Z,21.87
2019-04-23T14:02:23.440Z,21.89
2019-04-23T14:07:23.311Z,21.90
2019-04-23T14:12:26.090Z,21.95
2019-04-23T14:17:38.071Z,22.06
2019-04-23T14:23:00.364Z,22.11
2019-04-23T14:28:08.094Z,22.13
2019-04-23T14:32:49.874Z,22.14
2019-04-23T14:38:09.485Z,22.15
2019-04-23T14:43:10.939Z,22.35
2019-04-23T14:48:08.896Z,22.77
2019-04-23T14:53:12.613Z,23.28
2019-04-23T14:58:20.621Z,23.77
2019-04-23T15:13:28.027Z,24.73
2019-04-23T15:28:35.838Z,24.54
2019-04-23T15:34:07.549Z,24.41
2019-04-23T15:39:40.629Z,24.28
2019-04-23T15:44:19.302Z,24.13
2019-04-23T15:59:43.946Z,23.94
2019-04-23T16:04:03.506Z,23.85
2019-04-23T16:09:26.145Z,23.77
2019-04-23T16:15:00.247Z,23.75
2019-04-23T16:30:28.730Z,23.56
2019-04-23T16:40:28.346Z,23.46
2019-04-23T16:50:57.865Z,23.34
2019-04-23T17:01:02.530Z,23.22
2019-04-23T17:05:57.248Z,23.14
2019-04-23T17:11:10.061Z,23.12
2019-04-23T17:21:23.298Z,23.04
2019-04-23T17:26:19.113Z,22.99
2019-04-23T17:31:30.836Z,22.95
2019-04-23T17:36:34.877Z,22.92
2019-04-23T17:42:00.147Z,22.88
2019-04-23T17:47:02.750Z,22.85
2019-04-23T17:52:07.095Z,23.04
2019-04-23T17:57:07.573Z,23.41
2019-04-23T18:02:39.928Z,23.89
2019-04-23T18:07:36.287Z,24.40
2019-04-23T18:12:36.788Z,24.67
2019-04-23T18:17:41.310Z,24.80
2019-04-23T18:22:42.255Z,24.71
2019-04-23T18:27:48.256Z,24.58
2019-04-23T18:33:37.985Z,24.49
2019-04-23T18:38:12.564Z,24.38
2019-04-23T18:43:20.198Z,24.24
2019-04-23T18:53:43.662Z,23.98
2019-04-23T19:03:57.465Z,23.72
2019-04-23T19:14:12.717Z,23.55
2019-04-23T19:19:23.639Z,23.41
2019-04-23T19:24:22.111Z,23.32
2019-04-23T19:29:39.611Z,23.29
2019-04-23T19:34:35.660Z,23.17
2019-04-23T19:39:48.387Z,23.01
2019-04-23T19:49:51.299Z,22.08
2019-04-23T19:54:55.415Z,22.65
2019-04-23T19:59:55.267Z,22.82
2019-04-23T20:05:06.331Z,22.81
2019-04-23T20:10:03.650Z,22.81
2019-04-23T20:15:08.278Z,22.77
2019-04-23T20:20:19.137Z,22.71
2019-04-23T20:25:56.475Z,22.58
2019-04-23T20:31:50.498Z,22.57
2019-04-23T20:35:58.297Z,22.50
2019-04-23T20:41:05.749Z,22.39
2019-04-23T20:46:14.306Z,22.36
2019-04-23T20:51:24.672Z,22.21
2019-04-23T20:56:36.563Z,22.36
2019-04-23T21:02:03.264Z,22.75
2019-04-23T21:07:03.216Z,23.24
2019-04-23T21:17:04.091Z,24.89
2019-04-23T21:27:35.489Z,25.18
2019-04-23T21:32:33.430Z,25.21
2019-04-23T21:37:39.301Z,25.20
2019-04-23T21:42:55.971Z,25.11
2019-04-23T21:48:01.650Z,24.94
2019-04-23T21:52:58.202Z,24.65
2019-04-23T21:58:18.982Z,24.42
2019-04-23T22:03:19.688Z,24.30
2019-04-23T22:08:35.474Z,24.05
2019-04-23T22:13:29.515Z,23.84
2019-04-23T22:18:38.062Z,23.65
2019-04-23T22:23:40.682Z,23.45
2019-04-23T22:28:48.938Z,23.12
2019-04-23T22:34:00.348Z,22.90
2019-04-23T22:38:49.285Z,22.81
2019-04-23T22:49:18.003Z,22.52
2019-04-23T23:04:20.211Z,22.16
2019-04-23T23:09:28.747Z,22.08
2019-04-23T23:14:28.011Z,22.08
2019-04-23T23:19:38.986Z,22.01
2019-04-23T23:24:53.735Z,21.89
2019-04-23T23:29:58.137Z,21.87
2019-04-23T23:35:07.898Z,21.81
2019-04-23T23:40:04.728Z,21.74
2019-04-23T23:45:12.424Z,21.72
2019-04-23T23:55:16.080Z,21.67
